Time;durP1;ratioP1;P1;durP2;ratioP2;P2;SDS_P1;SDS_P2;PMS_P1;PMS_P2;Temp;Humidity;BMP_temperature;BMP_pressure;BME280_temperature;BME280_humidity;BME280_pressure;Samples;Min_cycle;Max_cycle;Signal;HPM_P1;HPM_P2
2022/07/11 00:03:00;;;;;;;7.40;2.00;;;10.10;99.90;;;;;;8303302;28;20217;-67
2022/07/11 00:07:02;;;;;;;8.73;2.23;;;10.10;99.90;;;;;;8299803;28;20210;-66
2022/07/11 00:11:03;;;;;;;4.80;1.77;;;10.20;99.90;;;;;;8304435;28;20297;-64
2022/07/11 00:15:04;;;;;;;6.87;2.00;;;10.20;99.90;;;;;;8319143;28;20182;-67
2022/07/11 00:19:05;;;;;;;4.57;1.80;;;10.30;87.00;;;;;;8302151;28;20193;-65
2022/07/11 00:23:06;;;;;;;6.17;2.00;;;10.40;1.00;;;;;;8307620;28;20213;-65
2022/07/11 00:27:07;;;;;;;4.57;1.80;;;10.50;1.00;;;;;;8304031;28;20191;-65
2022/07/11 00:31:08;;;;;;;2.70;1.47;;;10.60;99.90;;;;;;8299813;28;20210;-65
2022/07/11 00:35:09;;;;;;;4.17;1.50;;;10.60;99.90;;;;;;8332938;28;20191;-66
2022/07/11 00:39:10;;;;;;;4.13;1.70;;;10.60;99.90;;;;;;8306437;28;20187;-66
2022/07/11 00:43:11;;;;;;;3.13;1.80;;;10.70;99.90;;;;;;8305957;28;20191;-65
2022/07/11 00:47:11;;;;;;;6.03;1.90;;;10.80;99.90;;;;;;8310287;28;20198;-65
2022/07/11 00:51:13;;;;;;;6.50;1.90;;;10.80;99.90;;;;;;8304111;28;20361;-68
2022/07/11 00:55:13;;;;;;;3.57;1.70;;;10.90;45.10;;;;;;8308806;28;20206;-66
2022/07/11 00:59:18;;;;;;;4.87;1.50;;;11.00;83.40;;;;;;8307532;28;20277;-66
2022/07/11 01:03:19;;;;;;;6.03;1.47;;;10.90;53.80;;;;;;8304331;28;20190;-65
2022/07/11 01:07:19;;;;;;;5.53;2.00;;;11.00;22.10;;;;;;8307895;28;20203;-64
2022/07/11 01:11:21;;;;;;;5.23;1.73;;;11.10;1.00;;;;;;8309577;28;20238;-69
2022/07/11 01:15:22;;;;;;;4.27;1.70;;;11.10;1.00;;;;;;8312319;28;20187;-64
2022/07/11 01:19:23;;;;;;;6.27;1.63;;;11.10;1.00;;;;;;8318993;28;20192;-65
2022/07/11 01:23:24;;;;;;;5.27;1.50;;;11.20;1.00;;;;;;8321015;28;20231;-65
2022/07/11 01:27:25;;;;;;;3.77;1.53;;;11.30;1.00;;;;;;8311228;28;20531;-65
2022/07/11 01:31:26;;;;;;;4.10;1.57;;;11.40;1.00;;;;;;8311623;28;20296;-70
2022/07/11 01:35:29;;;;;;;5.93;1.87;;;11.40;1.00;;;;;;8313140;28;20207;-70
2022/07/11 01:39:30;;;;;;;4.33;1.50;;;11.50;1.00;;;;;;8312726;28;20190;-67
2022/07/11 01:43:30;;;;;;;7.53;1.53;;;11.50;99.90;;;;;;8312965;28;20207;-67
2022/07/11 01:47:31;;;;;;;8.00;1.73;;;11.60;99.90;;;;;;8327752;28;20211;-65
2022/07/11 01:51:33;;;;;;;6.00;1.57;;;11.60;99.90;;;;;;8316944;28;20230;-65
2022/07/11 01:55:34;;;;;;;2.73;1.30;;;11.60;99.90;;;;;;8319126;28;20192;-68
2022/07/11 01:59:34;;;;;;;7.97;2.07;;;11.60;99.90;;;;;;8320264;28;20256;-64
2022/07/11 02:03:37;;;;;;;7.63;2.00;;;11.60;99.90;;;;;;8312959;28;20187;-67
2022/07/11 02:11:57;;;;;;;8.10;2.00;;;11.40;1.00;;;;;;8315741;28;20242;-66
2022/07/11 02:15:58;;;;;;;6.03;1.77;;;11.30;1.00;;;;;;8331918;28;20199;-65
2022/07/11 02:19:59;;;;;;;4.20;2.20;;;11.20;1.00;;;;;;8314287;28;20202;-65
2022/07/11 02:23:59;;;;;;;5.10;1.43;;;11.10;22.10;;;;;;8317237;28;20191;-65
2022/07/11 02:28:01;;;;;;;5.20;1.77;;;11.00;59.50;;;;;;8307645;28;20259;-64
2022/07/11 02:32:03;;;;;;;5.83;1.90;;;10.90;99.90;;;;;;8310448;28;20222;-65
2022/07/11 02:36:04;;;;;;;3.20;1.33;;;10.80;99.90;;;;;;8315932;28;20194;-67
2022/07/11 02:40:06;;;;;;;6.93;1.90;;;10.70;99.90;;;;;;8310587;28;20273;-66
2022/07/11 02:44:07;;;;;;;4.90;1.73;;;10.50;99.90;;;;;;8311243;28;20215;-65
2022/07/11 02:48:08;;;;;;;5.33;1.67;;;10.50;99.90;;;;;;8309055;28;20197;-66
2022/07/11 02:52:10;;;;;;;5.30;1.90;;;10.40;1.00;;;;;;8310155;28;20214;-65
2022/07/11 02:56:13;;;;;;;6.23;1.80;;;10.30;1.00;;;;;;8324902;28;20211;-65
2022/07/11 03:00:16;;;;;;;5.77;1.63;;;10.30;1.00;;;;;;8303638;28;20190;-64
2022/07/11 03:04:17;;;;;;;3.93;1.33;;;10.20;1.00;;;;;;8302973;28;20198;-66
2022/07/11 03:08:18;;;;;;;5.33;1.90;;;10.20;25.70;;;;;;8313385;28;20214;-65
2022/07/11 03:12:19;;;;;;;4.80;1.67;;;10.20;99.90;;;;;;8315238;28;20216;-68
2022/07/11 03:16:20;;;;;;;6.27;1.80;;;10.20;99.90;;;;;;8307117;28;20182;-65
2022/07/11 03:20:20;;;;;;;5.87;1.97;;;10.20;99.90;;;;;;8305363;28;20617;-64
2022/07/11 03:24:21;;;;;;;8.40;1.57;;;10.40;99.90;;;;;;8307463;28;20527;-65
2022/07/11 03:28:22;;;;;;;5.43;1.60;;;11.00;99.90;;;;;;8308528;28;20331;-64
2022/07/11 03:32:23;;;;;;;3.93;1.30;;;11.70;1.00;;;;;;8308235;28;20215;-65
2022/07/11 03:36:23;;;;;;;4.23;1.37;;;12.00;99.90;;;;;;8307648;28;20510;-70
2022/07/11 03:40:24;;;;;;;5.13;1.10;;;12.00;99.90;;;;;;8303946;28;20193;-68
2022/07/11 03:44:25;;;;;;;5.30;1.27;;;11.80;99.90;;;;;;8308477;28;20199;-64
2022/07/11 03:48:26;;;;;;;5.47;1.90;;;11.50;1.00;;;;;;8308345;28;20185;-65
2022/07/11 03:52:27;;;;;;;6.93;1.27;;;11.50;1.00;;;;;;8304212;28;20260;-66
2022/07/11 03:56:27;;;;;;;7.33;1.27;;;12.20;99.90;;;;;;8307175;28;20220;-66
2022/07/11 04:00:28;;;;;;;7.53;1.47;;;12.70;99.90;;;;;;8312447;28;20243;-69
2022/07/11 04:04:29;;;;;;;8.07;1.40;;;13.80;1.00;;;;;;8303998;28;20373;-65
2022/07/11 04:08:30;;;;;;;4.30;1.30;;;14.60;99.90;;;;;;8316909;28;20259;-69
2022/07/11 04:12:30;;;;;;;3.93;1.23;;;15.20;99.90;;;;;;8304140;28;20591;-69
2022/07/11 04:16:31;;;;;;;4.57;1.00;;;15.70;99.90;;;;;;8332197;28;20250;-70
2022/07/11 04:20:32;;;;;;;5.83;1.60;;;16.20;99.90;;;;;;8303893;28;20182;-70
2022/07/11 04:24:33;;;;;;;5.53;1.50;;;16.60;99.90;;;;;;8301867;28;20194;-69
2022/07/11 04:28:33;;;;;;;4.77;1.43;;;17.10;99.90;;;;;;8297082;28;20201;-65
2022/07/11 04:32:35;;;;;;;5.13;1.23;;;17.30;99.10;;;;;;8297171;28;20242;-69
2022/07/11 04:36:36;;;;;;;4.10;1.10;;;17.40;77.60;;;;;;8303060;28;20262;-72
2022/07/11 04:40:37;;;;;;;4.50;1.07;;;17.50;77.80;;;;;;8311255;28;20187;-69
2022/07/11 04:44:37;;;;;;;4.60;1.00;;;17.70;67.40;;;;;;8304663;28;20217;-69
2022/07/11 04:48:38;;;;;;;2.17;0.90;;;17.60;80.80;;;;;;8302287;28;20393;-65
2022/07/11 04:52:41;;;;;;;7.53;1.17;;;17.30;99.90;;;;;;8307538;28;20219;-66
2022/07/11 04:56:42;;;;;;;2.93;0.93;;;16.80;99.90;;;;;;8303391;28;20218;-65
2022/07/11 05:00:43;;;;;;;3.93;1.13;;;16.10;99.90;;;;;;8339794;28;20225;-68
2022/07/11 05:04:44;;;;;;;5.00;1.40;;;15.70;99.90;;;;;;8307391;28;20290;-70
2022/07/11 05:08:45;;;;;;;6.73;1.20;;;15.80;99.90;;;;;;8308783;28;20197;-65
2022/07/11 05:12:46;;;;;;;5.87;0.97;;;15.80;99.90;;;;;;8309127;28;20214;-66
2022/07/11 05:16:47;;;;;;;4.90;1.17;;;15.90;99.90;;;;;;8306214;28;20628;-67
2022/07/11 05:20:51;;;;;;;3.33;1.00;;;16.30;99.90;;;;;;8310572;28;20206;-67
2022/07/11 05:24:51;;;;;;;3.83;1.23;;;16.30;99.90;;;;;;8302918;28;20182;-68
2022/07/11 05:28:53;;;;;;;3.10;1.10;;;16.20;99.90;;;;;;8302369;28;20286;-69
2022/07/11 05:32:53;;;;;;;5.27;1.20;;;15.90;99.90;;;;;;8298245;28;20218;-67
2022/07/11 05:36:54;;;;;;;6.03;1.17;;;15.60;99.90;;;;;;8298407;28;20198;-69
2022/07/11 05:40:55;;;;;;;5.23;1.43;;;15.50;99.90;;;;;;8307691;28;20198;-68
2022/07/11 05:44:56;;;;;;;4.50;0.97;;;15.40;1.00;;;;;;8305180;28;20182;-66
2022/07/11 05:48:57;;;;;;;4.37;1.20;;;15.40;1.00;;;;;;8308403;28;20200;-67
2022/07/11 05:52:58;;;;;;;3.63;0.90;;;15.30;1.00;;;;;;8302526;28;20249;-66
2022/07/11 05:57:01;;;;;;;7.13;1.30;;;15.30;1.00;;;;;;8335738;28;20543;-69
2022/07/11 06:01:02;;;;;;;4.93;1.47;;;15.40;1.00;;;;;;8310240;28;20216;-70
2022/07/11 06:05:02;;;;;;;5.83;1.73;;;15.40;1.00;;;;;;8310310;28;20195;-70
2022/07/11 06:09:03;;;;;;;5.47;1.00;;;15.60;1.00;;;;;;8309932;28;20194;-67
2022/07/11 06:13:04;;;;;;;4.07;0.93;;;15.90;1.00;;;;;;8343638;28;20209;-66
2022/07/11 06:17:05;;;;;;;4.77;1.00;;;16.10;99.90;;;;;;8313741;28;20257;-66
2022/07/11 06:21:06;;;;;;;4.87;1.43;;;16.40;99.90;;;;;;8314358;28;20190;-64
2022/07/11 06:25:08;;;;;;;4.30;1.47;;;16.60;99.90;;;;;;8313862;28;20190;-66
2022/07/11 06:29:09;;;;;;;3.60;1.00;;;16.60;99.90;;;;;;8317957;28;20197;-65
2022/07/11 06:33:10;;;;;;;5.00;1.00;;;16.70;99.90;;;;;;8315713;28;20215;-67
2022/07/11 06:37:11;;;;;;;5.23;0.93;;;16.90;99.90;;;;;;8343818;28;20186;-65
2022/07/11 06:41:11;;;;;;;4.23;0.97;;;16.90;99.90;;;;;;8315207;28;20194;-67
2022/07/11 06:45:12;;;;;;;6.17;1.20;;;16.80;99.90;;;;;;8312179;28;20284;-70
2022/07/11 06:49:13;;;;;;;2.63;0.80;;;17.00;99.90;;;;;;8306749;28;20209;-69
2022/07/11 06:53:14;;;;;;;5.80;2.43;;;17.10;99.90;;;;;;8343430;28;20210;-69
2022/07/11 06:57:15;;;;;;;5.67;1.27;;;16.90;99.90;;;;;;8302766;28;20230;-66
2022/07/11 07:01:15;;;;;;;3.40;1.00;;;16.90;99.90;;;;;;8308988;28;20184;-65
2022/07/11 07:05:16;;;;;;;4.03;1.00;;;16.90;99.90;;;;;;8309169;28;20226;-68
2022/07/11 07:09:17;;;;;;;3.80;1.10;;;16.60;99.90;;;;;;8312695;28;20187;-67
2022/07/11 07:13:18;;;;;;;6.17;1.10;;;16.20;99.90;;;;;;8301896;28;20313;-67
2022/07/11 07:17:19;;;;;;;6.80;1.37;;;15.90;99.90;;;;;;8309511;28;20225;-67
2022/07/11 07:21:20;;;;;;;3.83;1.00;;;15.60;30.50;;;;;;8308200;28;20190;-65
2022/07/11 07:25:21;;;;;;;6.87;1.43;;;15.00;1.00;;;;;;8309075;28;20195;-65
2022/07/11 07:29:22;;;;;;;5.17;1.57;;;14.40;1.00;;;;;;8305259;28;20293;-65
2022/07/11 07:33:22;;;;;;;6.33;2.23;;;13.90;96.50;;;;;;8306317;28;20218;-70
2022/07/11 07:37:23;;;;;;;7.87;1.80;;;13.70;99.90;;;;;;8310030;28;20214;-66
2022/07/11 07:41:24;;;;;;;6.33;1.80;;;13.70;99.90;;;;;;8311271;28;20246;-68
2022/07/11 07:45:25;;;;;;;5.77;1.57;;;13.90;99.90;;;;;;8310927;28;20272;-69
2022/07/11 07:49:27;;;;;;;7.17;1.63;;;14.20;1.00;;;;;;8311518;28;20282;-68
2022/07/11 07:53:27;;;;;;;6.43;1.53;;;14.70;34.10;;;;;;8307453;28;20222;-65
2022/07/11 07:57:28;;;;;;;8.00;1.70;;;15.10;99.90;;;;;;8308894;28;20186;-69
2022/07/11 08:01:35;;;;;;;4.57;1.30;;;15.50;99.90;;;;;;8310556;28;20195;-65
2022/07/11 08:05:36;;;;;;;6.03;1.47;;;15.50;1.00;;;;;;8309956;28;20194;-65
2022/07/11 08:09:37;;;;;;;3.20;1.13;;;15.70;99.90;;;;;;8309220;28;20241;-71
2022/07/11 08:13:38;;;;;;;8.47;2.07;;;15.80;99.90;;;;;;8311834;28;20211;-66
2022/07/11 08:17:41;;;;;;;4.70;1.37;;;16.50;99.90;;;;;;8307918;28;20321;-69
2022/07/11 08:21:42;;;;;;;6.47;1.47;;;17.00;99.90;;;;;;8339291;28;20190;-69
2022/07/11 08:25:42;;;;;;;5.50;1.40;;;17.30;1.00;;;;;;8312702;28;20221;-66
2022/07/11 08:29:43;;;;;;;6.50;1.70;;;17.30;1.00;;;;;;8312187;28;20369;-71
2022/07/11 08:33:45;;;;;;;6.23;1.20;;;17.20;99.90;;;;;;8311879;28;20253;-69
2022/07/11 08:37:46;;;;;;;5.90;1.93;;;16.70;99.90;;;;;;8308012;28;20195;-71
2022/07/11 08:41:47;;;;;;;6.43;1.73;;;16.30;99.90;;;;;;8312188;28;20248;-73
2022/07/11 08:45:50;;;;;;;6.00;1.50;;;16.40;99.90;;;;;;8304426;28;20293;-66
2022/07/11 08:49:52;;;;;;;5.43;1.43;;;16.60;1.00;;;;;;8313077;28;20182;-68
2022/07/11 08:53:53;;;;;;;4.00;0.90;;;16.80;99.90;;;;;;8312180;28;20218;-68
2022/07/11 08:57:54;;;;;;;4.27;1.10;;;16.80;99.90;;;;;;8305290;28;20201;-68
2022/07/11 09:01:58;;;;;;;4.30;1.20;;;17.00;50.30;;;;;;8306079;28;20194;-68
2022/07/11 09:06:00;;;;;;;2.63;1.13;;;17.10;99.90;;;;;;8298845;28;20414;-65
2022/07/11 09:10:01;;;;;;;5.03;0.97;;;17.30;1.00;;;;;;8302298;28;20190;-68
2022/07/11 09:14:10;;;;;;;3.13;0.80;;;17.30;99.90;;;;;;8307414;28;20223;-65
2022/07/11 09:18:30;;;;;;;8.13;1.17;;;17.70;1.00;;;;;;8311585;28;20186;-64
2022/07/11 09:26:53;;;;;;;4.93;1.17;;;18.10;99.90;;;;;;8307011;28;20205;-70
2022/07/11 09:30:55;;;;;;;4.80;1.03;;;18.20;99.90;;;;;;8301114;28;20205;-66
2022/07/11 09:35:01;;;;;;;5.07;1.00;;;18.20;99.90;;;;;;8302633;28;20304;-67
2022/07/11 09:39:03;;;;;;;7.33;1.17;;;18.40;99.90;;;;;;8321438;28;20237;-64
2022/07/11 09:43:05;;;;;;;2.93;0.67;;;18.60;99.90;;;;;;8313645;28;20207;-72
2022/07/11 09:47:09;;;;;;;4.13;0.73;;;18.40;99.90;;;;;;8308892;28;20194;-67
2022/07/11 09:51:20;;;;;;;3.53;0.83;;;18.30;99.90;;;;;;8310047;28;20210;-68
2022/07/11 09:55:20;;;;;;;1.33;0.50;;;18.40;99.90;;;;;;8310318;28;20232;-67
2022/07/11 09:59:23;;;;;;;4.20;0.53;;;18.50;31.90;;;;;;8310887;28;20186;-68
2022/07/11 10:03:25;;;;;;;4.90;0.60;;;18.70;1.00;;;;;;8307318;28;20245;-68
2022/07/11 10:07:27;;;;;;;3.50;0.63;;;18.70;65.60;;;;;;8322744;28;20226;-68
2022/07/11 10:11:30;;;;;;;2.77;0.40;;;19.10;44.10;;;;;;8312211;28;20195;-67
2022/07/11 10:15:34;;;;;;;3.53;1.00;;;19.20;1.00;;;;;;8312299;28;20187;-68
2022/07/11 10:20:18;;;;;;;3.13;0.80;;;19.20;61.80;;;;;;8312428;28;20200;-64
2022/07/11 10:24:22;;;;;;;3.60;1.00;;;19.40;74.80;;;;;;8306663;28;20210;-67
2022/07/11 10:28:59;;;;;;;3.73;0.90;;;19.70;54.90;;;;;;8306189;28;20199;-65
2022/07/11 10:33:04;;;;;;;2.07;0.77;;;19.90;1.00;;;;;;8305269;28;20257;-64
2022/07/11 10:37:07;;;;;;;3.47;0.80;;;19.70;1.00;;;;;;8309931;28;20191;-68
2022/07/11 10:41:20;;;;;;;6.13;1.00;;;19.50;1.00;;;;;;8308921;28;20191;-67
2022/07/11 10:45:22;;;;;;;3.63;1.00;;;19.00;1.00;;;;;;8303785;28;20199;-68
2022/07/11 10:49:43;;;;;;;3.47;0.60;;;19.20;1.00;;;;;;8309490;28;20624;-71
2022/07/11 10:53:48;;;;;;;3.47;1.03;;;19.30;18.10;;;;;;8308375;28;20289;-71
2022/07/11 10:57:51;;;;;;;5.07;1.27;;;19.40;15.90;;;;;;8309054;28;20197;-69
2022/07/11 11:02:09;;;;;;;4.37;0.87;;;20.00;1.00;;;;;;8311777;28;20191;-68
2022/07/11 11:06:11;;;;;;;3.13;0.63;;;19.90;1.00;;;;;;8306181;28;20298;-68
2022/07/11 11:10:18;;;;;;;3.50;0.77;;;19.50;1.00;;;;;;8306033;28;20187;-68
2022/07/11 11:14:21;;;;;;;2.67;0.80;;;19.30;1.00;;;;;;8307430;28;20238;-70
2022/07/11 11:18:22;;;;;;;1.83;0.67;;;19.30;20.00;;;;;;8311724;28;20242;-70
2022/07/11 11:22:24;;;;;;;1.93;0.57;;;20.10;1.00;;;;;;8308156;28;20204;-67
2022/07/11 11:27:01;;;;;;;3.60;0.70;;;20.10;1.00;;;;;;8319504;28;20191;-68
2022/07/11 11:31:05;;;;;;;2.67;0.70;;;20.00;1.00;;;;;;8311193;28;20191;-65
2022/07/11 11:35:08;;;;;;;3.83;0.80;;;20.10;1.00;;;;;;8305122;28;20223;-66
2022/07/11 11:39:09;;;;;;;2.37;0.60;;;20.00;1.00;;;;;;8299180;28;20190;-68
2022/07/11 11:43:20;;;;;;;1.10;0.57;;;19.90;1.00;;;;;;8307266;28;20190;-69
2022/07/11 11:47:21;;;;;;;1.60;0.50;;;19.60;1.00;;;;;;8320418;28;21475;-68
2022/07/11 11:51:22;;;;;;;4.70;0.60;;;19.80;1.00;;;;;;8304735;28;20210;-67
2022/07/11 11:55:23;;;;;;;2.30;0.70;;;20.50;1.00;;;;;;8308691;28;20218;-67
2022/07/11 11:59:31;;;;;;;2.07;0.70;;;20.70;1.00;;;;;;8307324;28;20201;-68
2022/07/11 12:03:55;;;;;;;1.93;0.73;;;20.20;1.00;;;;;;8307376;28;20186;-67
2022/07/11 12:07:55;;;;;;;4.30;0.80;;;19.60;1.00;;;;;;8303972;28;20840;-67
2022/07/11 12:20:39;;;;;;;3.17;0.93;;;18.50;65.10;;;;;;8308223;28;20197;-68
2022/07/11 12:24:45;;;;;;;2.17;0.70;;;18.50;99.70;;;;;;8307127;28;20241;-68
2022/07/11 12:29:22;;;;;;;2.63;0.60;;;18.30;99.90;;;;;;8311053;28;20202;-65
2022/07/11 12:33:24;;;;;;;1.90;0.70;;;18.20;99.90;;;;;;8301759;28;20222;-64
2022/07/11 12:37:35;;;;;;;2.33;0.53;;;18.20;99.90;;;;;;8304121;28;20190;-64
2022/07/11 12:41:36;;;;;;;3.17;0.67;;;18.30;99.90;;;;;;8301833;28;20187;-63
2022/07/11 12:45:37;;;;;;;0.97;0.33;;;18.40;99.90;;;;;;8301779;28;20275;-66
2022/07/11 12:49:44;;;;;;;2.40;0.60;;;18.40;99.90;;;;;;8310869;28;20190;-72
2022/07/11 12:53:45;;;;;;;1.07;0.60;;;18.50;99.90;;;;;;8302269;28;20324;-67
2022/07/11 12:58:00;;;;;;;1.67;0.53;;;18.80;99.90;;;;;;8302016;28;20206;-67
2022/07/11 13:02:06;;;;;;;1.20;0.50;;;19.40;99.90;;;;;;8307554;28;20224;-70
2022/07/11 13:06:07;;;;;;;1.70;0.53;;;20.00;64.00;;;;;;8298118;28;20240;-67
2022/07/11 13:10:14;;;;;;;2.70;0.70;;;20.30;14.60;;;;;;8300874;28;20194;-68
2022/07/11 13:18:34;;;;;;;1.33;0.53;;;19.60;69.60;;;;;;8302461;28;20318;-66
2022/07/11 13:22:36;;;;;;;2.70;0.70;;;19.20;99.90;;;;;;8302635;28;20190;-64
2022/07/11 13:26:36;;;;;;;2.83;0.73;;;19.00;99.90;;;;;;8307973;28;21338;-65
2022/07/11 13:30:38;;;;;;;3.17;1.00;;;19.00;99.90;;;;;;8299716;28;20198;-65
2022/07/11 13:34:39;;;;;;;4.20;0.70;;;19.10;99.90;;;;;;8302222;28;20214;-64
2022/07/11 13:38:40;;;;;;;1.93;0.80;;;19.20;99.90;;;;;;8306169;28;20195;-66
2022/07/11 13:42:45;;;;;;;3.97;1.57;;;19.40;99.90;;;;;;8306587;28;20588;-67
2022/07/11 13:46:46;;;;;;;6.43;2.23;;;19.80;99.90;;;;;;8301330;28;20213;-70
2022/07/11 13:50:47;;;;;;;6.00;1.40;;;20.20;99.90;;;;;;8309126;28;20210;-67
2022/07/11 13:54:48;;;;;;;1.70;0.60;;;20.70;36.50;;;;;;8301908;28;20247;-64
2022/07/11 13:58:49;;;;;;;3.00;0.70;;;21.10;1.00;;;;;;8304840;28;20190;-70
2022/07/11 14:02:50;;;;;;;2.40;0.77;;;20.80;1.00;;;;;;8308392;28;20194;-70
2022/07/11 14:06:50;;;;;;;3.33;0.80;;;20.50;1.00;;;;;;8298567;28;20203;-64
2022/07/11 14:10:52;;;;;;;1.77;0.60;;;20.20;1.00;;;;;;8309884;28;20202;-67
2022/07/11 14:14:52;;;;;;;2.40;0.67;;;20.30;1.00;;;;;;8303398;28;20539;-68
2022/07/11 14:18:53;;;;;;;3.90;0.83;;;20.50;1.00;;;;;;8316900;28;20187;-66
2022/07/11 14:22:54;;;;;;;2.53;0.77;;;20.70;1.00;;;;;;8304445;28;20713;-70
2022/07/11 14:26:57;;;;;;;2.30;1.13;;;20.50;1.00;;;;;;8309701;28;20264;-66
2022/07/11 14:30:59;;;;;;;3.13;0.70;;;20.10;1.00;;;;;;8317799;28;20214;-67
2022/07/11 14:35:00;;;;;;;1.87;0.60;;;19.80;1.00;;;;;;8312501;28;20205;-68
2022/07/11 14:39:00;;;;;;;2.63;0.77;;;19.60;1.00;;;;;;8308365;28;20257;-66
2022/07/11 14:43:01;;;;;;;2.13;0.60;;;19.50;1.00;;;;;;8310537;28;20194;-66
2022/07/11 14:47:02;;;;;;;1.47;0.50;;;19.60;1.00;;;;;;8311961;28;20206;-67
2022/07/11 14:51:04;;;;;;;2.50;0.80;;;19.70;1.00;;;;;;8309715;28;20335;-66
2022/07/11 14:55:06;;;;;;;1.53;0.50;;;19.90;1.00;;;;;;8307721;28;20219;-70
2022/07/11 14:59:07;;;;;;;4.20;0.60;;;20.10;1.00;;;;;;8309795;28;20190;-66
2022/07/11 15:16:05;;;;;;;3.87;0.67;;;21.90;1.00;;;;;;8309144;28;20194;-67
2022/07/11 15:20:06;;;;;;;1.93;0.60;;;22.10;1.00;;;;;;8308008;28;20254;-67
2022/07/11 15:24:07;;;;;;;5.07;0.63;;;21.90;1.00;;;;;;8311489;28;20186;-69
2022/07/11 15:28:08;;;;;;;1.57;0.50;;;21.40;1.00;;;;;;8313595;28;20205;-73
2022/07/11 15:32:09;;;;;;;4.00;0.60;;;21.20;1.00;;;;;;8305453;28;20206;-69
2022/07/11 15:36:14;;;;;;;3.17;0.80;;;20.90;1.00;;;;;;8313235;28;20201;-67
2022/07/11 15:40:15;;;;;;;2.27;0.50;;;20.60;1.00;;;;;;8311724;28;20214;-64
2022/07/11 15:44:15;;;;;;;0.93;0.43;;;20.50;1.00;;;;;;8325851;28;20199;-68
2022/07/11 15:48:16;;;;;;;1.47;0.33;;;20.50;1.00;;;;;;8341629;28;20287;-68
2022/07/11 15:52:17;;;;;;;3.37;0.77;;;20.50;1.00;;;;;;8309651;28;20210;-66
2022/07/11 15:56:19;;;;;;;1.70;0.50;;;20.50;1.00;;;;;;8305401;28;20194;-67
2022/07/11 16:00:20;;;;;;;1.53;0.50;;;20.60;1.00;;;;;;8309747;28;20273;-63
2022/07/11 16:04:21;;;;;;;2.60;0.70;;;21.00;1.00;;;;;;8318119;28;20191;-66
2022/07/11 16:08:22;;;;;;;0.90;0.47;;;21.10;1.00;;;;;;8308195;28;20281;-66
2022/07/11 16:12:23;;;;;;;2.10;0.50;;;21.20;1.00;;;;;;8301451;28;20203;-70
2022/07/11 16:16:25;;;;;;;3.43;0.47;;;21.40;1.00;;;;;;8308698;28;20190;-69
2022/07/11 16:20:26;;;;;;;1.40;0.60;;;21.50;1.00;;;;;;8307632;28;20186;-69
2022/07/11 16:24:28;;;;;;;2.00;0.67;;;21.50;1.00;;;;;;8304946;28;20193;-67
2022/07/11 16:28:29;;;;;;;2.27;0.50;;;21.50;1.00;;;;;;8339044;28;20213;-67
2022/07/11 16:32:30;;;;;;;3.83;0.40;;;21.30;1.00;;;;;;8309965;28;20222;-69
2022/07/11 16:36:31;;;;;;;2.30;0.70;;;21.10;1.00;;;;;;8302347;28;20186;-65
2022/07/11 16:44:52;;;;;;;2.73;0.60;;;20.50;1.00;;;;;;8300290;28;20194;-66
2022/07/11 16:48:53;;;;;;;2.77;0.80;;;20.20;1.00;;;;;;8303688;28;20187;-67
2022/07/11 16:52:54;;;;;;;3.13;0.83;;;20.30;1.00;;;;;;8302103;28;20360;-65
2022/07/11 16:56:55;;;;;;;0.97;0.50;;;20.50;1.00;;;;;;8309224;28;20190;-66
2022/07/11 17:00:56;;;;;;;1.90;0.43;;;20.60;1.00;;;;;;8324961;28;20190;-65
2022/07/11 17:04:57;;;;;;;2.43;0.60;;;20.50;1.00;;;;;;8298856;28;20284;-66
2022/07/11 17:08:58;;;;;;;1.70;0.60;;;20.40;1.00;;;;;;8303197;28;20268;-65
2022/07/11 17:12:59;;;;;;;0.97;0.30;;;20.30;1.00;;;;;;8301916;28;20218;-67
2022/07/11 17:17:00;;;;;;;0.80;0.40;;;20.10;1.00;;;;;;8335478;28;20190;-66
2022/07/11 17:21:02;;;;;;;1.10;0.40;;;20.10;1.00;;;;;;8302097;28;20258;-68
2022/07/11 17:25:03;;;;;;;1.13;0.30;;;20.20;1.00;;;;;;8300764;28;20285;-65
2022/07/11 17:29:04;;;;;;;1.23;0.30;;;20.20;1.00;;;;;;8296190;28;20384;-65
2022/07/11 17:33:05;;;;;;;0.63;0.30;;;20.30;1.00;;;;;;8330190;28;20214;-64
2022/07/11 17:37:06;;;;;;;1.27;0.47;;;20.20;1.00;;;;;;8301739;28;20206;-67
2022/07/11 17:41:07;;;;;;;1.43;0.50;;;20.00;1.00;;;;;;8310014;28;20202;-65
2022/07/11 17:45:08;;;;;;;4.13;0.30;;;19.90;1.00;;;;;;8302403;28;20194;-67
2022/07/11 17:49:10;;;;;;;2.93;0.80;;;19.80;1.00;;;;;;8305754;28;20199;-66
2022/07/11 17:53:10;;;;;;;2.10;1.10;;;19.80;1.00;;;;;;8306629;28;20305;-70
2022/07/11 17:57:11;;;;;;;2.30;0.70;;;19.70;1.00;;;;;;8309891;28;20186;-64
2022/07/11 18:01:13;;;;;;;1.57;0.60;;;19.60;1.00;;;;;;8307363;28;20183;-64
2022/07/11 18:05:14;;;;;;;1.60;0.50;;;19.50;1.00;;;;;;8308866;28;20199;-62
2022/07/11 18:09:18;;;;;;;1.83;0.40;;;19.40;1.00;;;;;;8312263;28;20447;-66
2022/07/11 18:13:19;;;;;;;2.00;0.40;;;19.40;1.00;;;;;;8310063;28;20280;-66
2022/07/11 18:17:21;;;;;;;0.90;0.40;;;19.40;1.00;;;;;;8312225;28;20237;-71
2022/07/11 18:21:24;;;;;;;1.50;0.63;;;19.30;1.00;;;;;;8312576;28;20249;-64
2022/07/11 18:25:25;;;;;;;1.53;0.40;;;19.20;1.00;;;;;;8306047;28;20191;-64
2022/07/11 18:29:26;;;;;;;0.83;0.50;;;19.10;1.00;;;;;;8308973;28;20273;-63
2022/07/11 18:33:27;;;;;;;1.20;0.33;;;19.10;1.00;;;;;;8309496;28;20230;-64
2022/07/11 18:37:28;;;;;;;0.97;0.50;;;19.00;1.00;;;;;;8305761;28;20183;-63
2022/07/11 18:41:29;;;;;;;3.23;0.40;;;18.90;1.00;;;;;;8304132;28;20167;-65
2022/07/11 18:45:30;;;;;;;1.43;0.30;;;18.90;1.00;;;;;;8306167;28;20268;-64
2022/07/11 18:49:32;;;;;;;3.67;0.20;;;19.30;1.00;;;;;;8309708;28;20195;-66
2022/07/11 18:53:33;;;;;;;0.60;0.40;;;19.30;1.00;;;;;;8303662;28;20311;-64
2022/07/11 18:57:34;;;;;;;1.13;0.40;;;19.30;1.00;;;;;;8306828;28;20202;-65
2022/07/11 19:01:35;;;;;;;2.87;0.40;;;19.10;1.00;;;;;;8342391;28;20187;-65
2022/07/11 19:05:36;;;;;;;0.90;0.23;;;18.80;1.00;;;;;;8313145;28;20225;-65
2022/07/11 19:09:37;;;;;;;0.50;0.30;;;18.60;1.00;;;;;;8311919;28;20302;-64
2022/07/11 19:13:38;;;;;;;1.23;0.30;;;18.30;1.00;;;;;;8311016;28;20279;-66
2022/07/11 19:17:38;;;;;;;1.60;0.30;;;18.20;1.00;;;;;;8310321;28;20209;-65
2022/07/11 19:21:39;;;;;;;0.63;0.23;;;18.10;1.00;;;;;;8306297;28;20228;-63
2022/07/11 19:25:40;;;;;;;0.60;0.30;;;18.00;5.90;;;;;;8321434;28;20190;-70
2022/07/11 19:29:41;;;;;;;2.93;0.30;;;17.90;21.50;;;;;;8305482;28;20205;-68
2022/07/11 19:33:42;;;;;;;2.17;0.40;;;17.80;35.50;;;;;;8310777;28;20317;-69
2022/07/11 19:37:43;;;;;;;1.30;0.50;;;17.70;47.20;;;;;;8310976;28;20183;-63
2022/07/11 19:41:44;;;;;;;4.17;0.40;;;17.60;93.90;;;;;;8308241;28;20183;-63
2022/07/11 19:45:45;;;;;;;2.53;0.60;;;17.40;86.30;;;;;;8309511;28;20277;-64
2022/07/11 19:49:45;;;;;;;0.53;0.33;;;17.30;87.30;;;;;;8306517;28;20214;-66
2022/07/11 19:53:46;;;;;;;0.97;0.40;;;17.30;88.90;;;;;;8297680;28;20214;-64
2022/07/11 19:57:47;;;;;;;1.27;0.53;;;17.20;94.10;;;;;;8300608;28;20451;-63
2022/07/11 20:01:48;;;;;;;1.27;0.40;;;17.00;99.90;;;;;;8300695;28;20190;-64
2022/07/11 20:05:48;;;;;;;1.37;0.60;;;16.70;99.90;;;;;;8334350;28;20213;-65
2022/07/11 20:09:50;;;;;;;1.73;0.70;;;16.40;99.90;;;;;;8305828;28;20199;-65
2022/07/11 20:13:51;;;;;;;1.37;0.60;;;16.10;99.90;;;;;;8322387;28;20203;-65
2022/07/11 20:17:51;;;;;;;0.80;0.50;;;15.70;99.90;;;;;;8308593;28;20195;-64
2022/07/11 20:21:54;;;;;;;0.77;0.40;;;15.50;99.90;;;;;;8305178;28;20210;-65
2022/07/11 20:25:57;;;;;;;1.10;0.50;;;15.20;1.00;;;;;;8303308;28;20190;-64
2022/07/11 20:29:58;;;;;;;0.67;0.40;;;15.00;1.00;;;;;;8302875;28;20210;-65
2022/07/11 20:33:59;;;;;;;1.33;0.40;;;14.70;1.00;;;;;;8304273;28;20211;-65
2022/07/11 20:38:00;;;;;;;0.90;0.57;;;14.50;1.00;;;;;;8306557;28;20201;-64
2022/07/11 20:42:02;;;;;;;1.17;0.40;;;14.40;1.00;;;;;;8297752;28;20245;-66
2022/07/11 20:46:03;;;;;;;2.97;0.47;;;14.20;56.90;;;;;;8307690;28;20249;-68
2022/07/11 20:50:04;;;;;;;1.13;0.30;;;14.00;99.90;;;;;;8303567;28;20198;-68
2022/07/11 20:54:08;;;;;;;1.20;0.60;;;13.80;99.90;;;;;;8301564;28;20221;-67
2022/07/11 20:58:09;;;;;;;1.10;0.40;;;13.70;99.90;;;;;;8304134;28;20273;-66
2022/07/11 21:02:10;;;;;;;0.57;0.37;;;13.50;99.90;;;;;;8307161;28;20225;-66
2022/07/11 21:06:10;;;;;;;0.40;0.40;;;13.40;99.90;;;;;;8337273;28;20199;-67
2022/07/11 21:10:11;;;;;;;0.70;0.30;;;13.30;99.90;;;;;;8317104;28;20205;-66
2022/07/11 21:14:12;;;;;;;0.73;0.40;;;13.20;99.90;;;;;;8299885;28;20221;-65
2022/07/11 21:18:13;;;;;;;1.83;0.43;;;13.00;1.00;;;;;;8299322;28;20310;-66
2022/07/11 21:22:14;;;;;;;0.70;0.33;;;12.90;1.00;;;;;;8304498;28;20214;-65
2022/07/11 21:26:14;;;;;;;1.00;0.50;;;12.80;1.00;;;;;;8300133;28;20204;-66
2022/07/11 21:30:15;;;;;;;0.87;0.47;;;12.70;1.00;;;;;;8304257;28;20190;-65
2022/07/11 21:34:16;;;;;;;2.07;0.37;;;12.70;1.00;;;;;;8313791;28;20227;-65
2022/07/11 21:38:17;;;;;;;0.50;0.37;;;12.70;1.00;;;;;;8313483;28;20205;-65
2022/07/11 21:42:18;;;;;;;0.77;0.40;;;12.80;1.00;;;;;;8314458;28;20197;-66
2022/07/11 21:46:19;;;;;;;1.00;0.40;;;12.90;1.00;;;;;;8303350;28;20194;-65
2022/07/11 21:50:19;;;;;;;0.77;0.30;;;12.90;1.00;;;;;;8306543;28;20224;-64